createdAt,value
2018-09-05T00:01:58.930Z,75.20
2018-09-05T00:04:26.112Z,75.50
2018-09-05T00:06:53.528Z,75.50
2018-09-05T00:09:20.910Z,75.70
2018-09-05T00:11:48.282Z,75.70
2018-09-05T00:14:15.639Z,75.60
2018-09-05T00:16:42.965Z,75.50
2018-09-05T00:19:10.322Z,75.50
2018-09-05T00:21:37.642Z,75.50
2018-09-05T00:24:05.002Z,75.50
2018-09-05T00:26:32.341Z,75.10
2018-09-05T00:29:00.010Z,75.40
2018-09-05T00:31:27.432Z,75.50
2018-09-05T00:33:54.747Z,75.50
2018-09-05T00:36:22.108Z,75.50
2018-09-05T00:38:49.408Z,75.60
2018-09-05T00:41:16.774Z,75.50
2018-09-05T00:43:44.143Z,74.90
2018-09-05T00:46:11.468Z,75.10
2018-09-05T00:48:38.792Z,75.40
2018-09-05T00:51:06.162Z,75.60
2018-09-05T00:53:33.490Z,75.90
2018-09-05T00:56:01.080Z,76.20
2018-09-05T00:58:29.394Z,76.40
2018-09-05T01:00:56.695Z,76.40
2018-09-05T01:03:24.020Z,76.40
2018-09-05T01:05:51.319Z,76.40
2018-09-05T01:08:18.613Z,76.50
2018-09-05T01:10:45.905Z,76.50
2018-09-05T01:13:13.325Z,76.40
2018-09-05T01:15:41.113Z,76.80
2018-09-05T01:18:08.294Z,76.30
2018-09-05T01:20:35.556Z,76.60
2018-09-05T01:23:02.740Z,76.60
2018-09-05T01:25:29.920Z,76.80
2018-09-05T01:27:57.098Z,77.00
2018-09-05T01:30:26.488Z,77.20
2018-09-05T01:32:54.124Z,77.30
2018-09-05T01:35:21.322Z,77.40
2018-09-05T01:37:48.476Z,77.40
2018-09-05T01:40:15.651Z,77.70
2018-09-05T01:42:42.844Z,77.50
2018-09-05T01:45:10.016Z,77.40
2018-09-05T01:47:37.179Z,77.50
2018-09-05T01:50:04.946Z,78.10
2018-09-05T01:52:32.148Z,77.70
2018-09-05T01:54:59.324Z,78.00
2018-09-05T01:57:26.498Z,78.40
2018-09-05T01:59:53.664Z,77.90
2018-09-05T02:02:21.141Z,77.60
2018-09-05T02:04:48.468Z,77.70
2018-09-05T02:07:16.784Z,78.20
2018-09-05T02:09:43.948Z,78.50
2018-09-05T02:12:11.530Z,78.50
2018-09-05T02:14:38.701Z,78.20
2018-09-05T02:17:05.872Z,78.70
2018-09-05T02:19:33.034Z,78.70
2018-09-05T02:22:00.332Z,79.30
2018-09-05T02:24:27.616Z,79.50
2018-09-05T02:26:54.946Z,79.40
2018-09-05T02:29:22.260Z,78.80
2018-09-05T02:31:49.565Z,78.80
2018-09-05T02:34:16.874Z,79.30
2018-09-05T02:36:44.224Z,79.90
2018-09-05T02:39:11.656Z,80.00
2018-09-05T02:41:45.800Z,80.30
2018-09-05T02:44:20.397Z,80.10
2018-09-05T02:46:47.565Z,80.40
2018-09-05T02:49:14.740Z,78.30
2018-09-05T02:51:42.104Z,77.70
2018-09-05T02:54:09.293Z,78.40
2018-09-05T02:56:36.460Z,79.30
2018-09-05T02:59:03.895Z,79.80
2018-09-05T03:01:31.108Z,80.40
2018-09-05T03:03:58.820Z,80.70
2018-09-05T03:06:26.011Z,81.30
2018-09-05T03:08:53.156Z,81.60
2018-09-05T03:11:20.331Z,81.80
2018-09-05T03:13:47.493Z,82.20
2018-09-05T03:16:14.671Z,82.20
2018-09-05T03:18:42.501Z,82.10
2018-09-05T03:21:10.528Z,82.00
2018-09-05T03:23:37.777Z,82.50
2018-09-05T03:26:04.929Z,82.60
2018-09-05T03:28:32.097Z,82.60
2018-09-05T03:30:59.269Z,82.70
2018-09-05T03:33:26.452Z,83.00
2018-09-05T03:35:53.621Z,83.00
2018-09-05T03:38:20.780Z,82.90
2018-09-05T03:40:47.956Z,79.60
2018-09-05T03:43:15.124Z,79.50
2018-09-05T03:45:42.288Z,80.80
2018-09-05T03:48:09.676Z,81.70
2018-09-05T03:50:37.013Z,81.90
2018-09-05T03:53:04.203Z,82.80
2018-09-05T03:55:31.372Z,83.00
2018-09-05T03:57:58.720Z,82.80
2018-09-05T04:00:30.505Z,82.80
2018-09-05T04:02:57.673Z,83.00
2018-09-05T04:05:25.051Z,82.90
2018-09-05T04:07:52.420Z,83.20
2018-09-05T04:10:19.591Z,83.70
2018-09-05T04:12:46.744Z,83.90
2018-09-05T04:15:13.896Z,84.10
2018-09-05T04:17:41.586Z,84.70
2018-09-05T04:20:09.329Z,84.80
2018-09-05T04:22:36.628Z,85.10
2018-09-05T04:25:03.908Z,84.40
2018-09-05T04:27:31.125Z,84.30
2018-09-05T04:29:58.336Z,84.20
2018-09-05T04:32:25.848Z,84.40
2018-09-05T04:34:53.075Z,84.30
2018-09-05T04:37:20.229Z,83.80
2018-09-05T04:39:47.384Z,83.80
2018-09-05T04:42:14.804Z,84.00
2018-09-05T04:44:41.969Z,83.90
2018-09-05T04:47:09.144Z,84.20
2018-09-05T04:49:36.333Z,84.30
2018-09-05T04:52:03.532Z,84.50
2018-09-05T04:54:30.708Z,84.40
2018-09-05T04:56:57.863Z,84.60
2018-09-05T04:59:25.041Z,84.70
2018-09-05T05:01:52.212Z,85.10
2018-09-05T05:04:19.392Z,85.40
2018-09-05T05:06:46.717Z,85.60
2018-09-05T05:09:14.011Z,85.80
2018-09-05T05:11:41.377Z,85.80
2018-09-05T05:14:08.899Z,86.20
2018-09-05T05:16:36.073Z,86.40
2018-09-05T05:19:03.674Z,86.70
2018-09-05T05:21:30.861Z,86.70
2018-09-05T05:23:59.098Z,86.80
2018-09-05T05:26:26.309Z,86.30
2018-09-05T05:28:53.736Z,85.90
2018-09-05T05:31:20.941Z,85.90
2018-09-05T05:33:48.097Z,86.20
2018-09-05T05:36:16.065Z,86.10
2018-09-05T05:38:43.271Z,86.20
2018-09-05T05:41:10.432Z,86.30
2018-09-05T05:43:37.640Z,86.10
2018-09-05T05:46:04.983Z,86.50
2018-09-05T05:48:32.159Z,86.50
2018-09-05T05:50:59.369Z,86.40
2018-09-05T05:53:26.524Z,86.30
2018-09-05T05:55:53.701Z,85.70
2018-09-05T05:58:21.049Z,86.00
2018-09-05T06:00:48.300Z,86.30
2018-09-05T06:03:15.531Z,86.50
2018-09-05T06:05:42.700Z,86.50
2018-09-05T06:08:11.177Z,86.60
2018-09-05T06:10:38.357Z,86.40
2018-09-05T06:13:05.512Z,86.50
2018-09-05T06:15:32.723Z,86.50
2018-09-05T06:18:00.348Z,86.50
2018-09-05T06:20:27.473Z,86.50
2018-09-05T06:22:54.660Z,86.70
2018-09-05T06:25:21.816Z,86.50
2018-09-05T06:27:49.181Z,86.60
2018-09-05T06:30:16.533Z,86.20
2018-09-05T06:32:43.720Z,86.10
2018-09-05T06:35:11.021Z,86.10
2018-09-05T06:37:38.203Z,86.20
2018-09-05T06:40:05.724Z,86.50
2018-09-05T06:42:33.051Z,86.40
2018-09-05T06:45:00.280Z,86.30
2018-09-05T06:47:27.417Z,86.30
2018-09-05T06:49:54.569Z,86.80
2018-09-05T06:52:21.909Z,86.40
2018-09-05T06:54:49.089Z,86.00
2018-09-05T06:57:16.436Z,85.90
2018-09-05T06:59:43.644Z,86.00
2018-09-05T07:02:10.828Z,86.50
2018-09-05T07:04:38.037Z,86.60
2018-09-05T07:07:05.299Z,86.50
2018-09-05T07:09:32.428Z,86.10
2018-09-05T07:14:34.118Z,86.30
2018-09-05T07:17:02.237Z,86.00
2018-09-05T07:19:29.598Z,85.70
2018-09-05T07:21:56.938Z,85.80
2018-09-05T07:24:24.168Z,85.60
2018-09-05T07:26:51.465Z,85.10
2018-09-05T07:29:18.660Z,85.00
2018-09-05T07:31:45.913Z,85.10
2018-09-05T07:34:13.168Z,84.60
2018-09-05T07:36:40.348Z,84.40
2018-09-05T07:39:08.701Z,84.50
2018-09-05T07:41:35.935Z,83.50
2018-09-05T07:44:03.397Z,83.60
2018-09-05T07:46:30.597Z,83.10
2018-09-05T07:48:58.149Z,83.60
2018-09-05T07:51:25.417Z,82.90
2018-09-05T07:53:52.847Z,82.00
2018-09-05T07:56:20.154Z,82.20
2018-09-05T07:58:47.420Z,82.00
2018-09-05T08:01:15.512Z,82.00
2018-09-05T08:03:42.793Z,81.50
2018-09-05T08:06:09.981Z,81.00
2018-09-05T08:08:37.140Z,80.40
2018-09-05T08:11:04.404Z,80.40
2018-09-05T08:13:31.649Z,79.50
2018-09-05T08:15:58.824Z,78.60
2018-09-05T08:18:25.977Z,79.20
2018-09-05T08:20:53.169Z,79.20
2018-09-05T08:23:20.353Z,80.30
2018-09-05T08:25:47.633Z,80.00
2018-09-05T08:28:14.807Z,80.00
2018-09-05T08:30:42.290Z,80.10
2018-09-05T08:33:09.669Z,79.50
2018-09-05T08:35:37.474Z,79.70
2018-09-05T08:38:04.808Z,77.80
2018-09-05T08:40:32.066Z,78.00
2018-09-05T08:42:59.526Z,77.00
2018-09-05T08:45:28.095Z,77.10
2018-09-05T08:47:54.970Z,78.40
2018-09-05T08:50:22.326Z,77.90
2018-09-05T08:52:49.887Z,77.30
2018-09-05T08:55:17.345Z,78.10
2018-09-05T08:57:44.669Z,78.20
2018-09-05T09:00:12.063Z,77.50
2018-09-05T09:02:39.519Z,76.20
2018-09-05T09:05:07.304Z,75.80
2018-09-05T09:07:35.090Z,73.50
2018-09-05T09:10:02.848Z,74.30
2018-09-05T09:12:31.098Z,75.00
2018-09-05T09:14:58.781Z,75.80
2018-09-05T09:17:26.307Z,74.30
2018-09-05T09:19:53.821Z,74.40
2018-09-05T09:22:21.237Z,74.50
2018-09-05T09:24:48.774Z,73.10
2018-09-05T09:27:16.177Z,72.10
2018-09-05T09:29:43.747Z,72.50
2018-09-05T09:32:11.278Z,72.30
2018-09-05T09:34:39.631Z,72.10
2018-09-05T09:37:07.255Z,70.60
2018-09-05T09:39:34.848Z,70.80
2018-09-05T09:42:02.517Z,70.30
2018-09-05T09:44:31.267Z,70.20
2018-09-05T09:47:05.519Z,69.30
2018-09-05T09:49:33.255Z,68.90
2018-09-05T09:52:06.478Z,69.10
2018-09-05T09:54:33.883Z,66.20
2018-09-05T09:57:01.384Z,67.00
2018-09-05T09:59:29.070Z,67.10
2018-09-05T10:02:02.110Z,67.20
2018-09-05T10:04:35.301Z,66.10
2018-09-05T10:07:08.603Z,65.40
2018-09-05T10:09:41.981Z,63.60
2018-09-05T10:12:15.187Z,63.70
2018-09-05T10:14:48.550Z,65.00
2018-09-05T10:17:21.796Z,64.50
2018-09-05T10:19:55.874Z,62.50
2018-09-05T10:22:23.689Z,62.70
2018-09-05T10:24:54.112Z,62.20
2018-09-05T10:27:22.282Z,63.00
2018-09-05T10:29:50.680Z,63.80
2018-09-05T10:32:19.472Z,62.90
2018-09-05T10:34:47.107Z,61.90
2018-09-05T10:37:15.494Z,60.80
2018-09-05T10:39:43.389Z,61.80
2018-09-05T10:42:11.116Z,62.40
2018-09-05T10:44:38.767Z,60.40
2018-09-05T10:47:06.930Z,59.80
2018-09-05T10:49:35.281Z,60.70
2018-09-05T10:52:03.972Z,59.80
2018-09-05T10:54:31.827Z,60.10
2018-09-05T10:57:00.885Z,60.40
2018-09-05T10:59:28.788Z,56.90
2018-09-05T11:01:57.427Z,56.80
2018-09-05T11:04:25.473Z,57.50
2018-09-05T11:06:54.930Z,56.60
2018-09-05T11:09:25.194Z,57.90
2018-09-05T11:11:53.760Z,57.40
2018-09-05T11:14:23.969Z,56.80
2018-09-05T11:16:53.938Z,56.50
2018-09-05T11:19:24.446Z,55.20
2018-09-05T11:24:46.840Z,54.80
2018-09-05T11:27:15.758Z,55.30
2018-09-05T11:29:45.051Z,54.50
2018-09-05T11:32:14.849Z,54.70
2018-09-05T11:34:44.561Z,55.40
2018-09-05T12:09:52.410Z,55.10
2018-09-05T12:12:20.070Z,45.30
2018-09-05T12:14:47.593Z,44.50
2018-09-05T12:17:15.138Z,42.10
2018-09-05T12:19:42.607Z,44.40
2018-09-05T12:22:10.144Z,42.00
2018-09-05T12:24:37.825Z,43.20
2018-09-05T12:27:05.303Z,44.50
2018-09-05T12:29:32.928Z,45.60
2018-09-05T12:32:00.458Z,43.10
2018-09-05T12:34:27.920Z,43.80
2018-09-05T12:36:55.424Z,44.10
2018-09-05T12:39:23.110Z,44.40
2018-09-05T12:41:50.616Z,42.60
2018-09-05T12:44:18.101Z,44.70
2018-09-05T12:46:45.581Z,43.80
2018-09-05T12:49:14.239Z,43.50
2018-09-05T12:51:41.733Z,42.70
2018-09-05T12:54:09.885Z,43.30
2018-09-05T12:56:37.411Z,42.80
2018-09-05T12:59:05.028Z,41.90
2018-09-05T13:01:32.518Z,42.40
2018-09-05T13:04:04.099Z,41.30
2018-09-05T13:06:31.648Z,41.20
2018-09-05T13:08:59.550Z,41.90
2018-09-05T13:11:27.060Z,42.20
2018-09-05T13:13:54.576Z,41.90
2018-09-05T13:16:22.038Z,42.00
2018-09-05T13:18:49.619Z,42.10
2018-09-05T13:21:17.176Z,43.60
2018-09-05T13:23:44.674Z,42.50
2018-09-05T13:26:12.128Z,42.70
2018-09-05T13:28:39.584Z,43.20
2018-09-05T13:31:07.182Z,43.00
2018-09-05T13:33:34.680Z,42.00
2018-09-05T13:36:02.238Z,42.60
2018-09-05T13:38:30.086Z,42.30
2018-09-05T13:40:57.589Z,42.00
2018-09-05T13:43:25.094Z,41.50
2018-09-05T13:45:52.602Z,42.30
2018-09-05T13:48:20.111Z,41.40
2018-09-05T13:50:47.789Z,41.80
2018-09-05T13:53:16.384Z,43.20
2018-09-05T13:55:44.983Z,43.80
2018-09-05T13:58:12.463Z,44.10
2018-09-05T14:00:40.106Z,44.70
2018-09-05T14:03:07.604Z,44.10
2018-09-05T14:06:13.836Z,45.40
2018-09-05T14:08:42.087Z,47.00
2018-09-05T14:11:10.671Z,47.50
2018-09-05T14:13:38.280Z,47.00
2018-09-05T14:16:05.722Z,47.80
2018-09-05T14:18:33.208Z,48.10
2018-09-05T14:21:00.681Z,48.10
2018-09-05T14:23:28.155Z,48.20
2018-09-05T14:25:55.641Z,49.00
2018-09-05T14:28:23.089Z,50.20
2018-09-05T14:30:50.550Z,50.40
2018-09-05T14:33:18.535Z,50.80
2018-09-05T14:35:45.957Z,51.60
2018-09-05T14:38:13.428Z,49.30
2018-09-05T14:40:41.064Z,47.80
2018-09-05T14:43:08.597Z,47.00
2018-09-05T14:45:39.331Z,46.20
2018-09-05T14:48:06.981Z,46.10
2018-09-05T14:50:34.517Z,45.00
2018-09-05T14:53:01.959Z,45.60
2018-09-05T14:55:29.588Z,44.70
2018-09-05T14:57:57.199Z,44.90
2018-09-05T15:00:24.699Z,42.20
2018-09-05T15:02:52.288Z,43.20
2018-09-05T15:05:19.857Z,43.80
2018-09-05T15:07:48.863Z,45.00
2018-09-05T15:10:16.744Z,43.80
2018-09-05T15:12:44.794Z,43.70
2018-09-05T15:15:12.787Z,44.30
2018-09-05T15:17:40.518Z,43.40
2018-09-05T15:20:08.925Z,44.00
2018-09-05T15:22:36.466Z,44.80
2018-09-05T15:25:04.057Z,45.40
2018-09-05T15:27:31.561Z,45.30
2018-09-05T15:29:59.063Z,45.20
2018-09-05T15:32:26.603Z,44.90
2018-09-05T15:34:54.106Z,46.00
2018-09-05T15:37:21.727Z,46.70
2018-09-05T15:39:49.213Z,49.10
2018-09-05T15:42:16.856Z,48.10
2018-09-05T15:44:44.338Z,47.60
2018-09-05T15:47:11.893Z,47.30
2018-09-05T15:49:39.425Z,46.00
2018-09-05T15:52:06.922Z,47.20
2018-09-05T15:54:34.392Z,48.30
2018-09-05T15:57:01.861Z,49.60
2018-09-05T15:59:29.470Z,48.40
2018-09-05T16:01:56.968Z,47.80
2018-09-05T16:04:24.456Z,47.60
2018-09-05T16:06:51.958Z,47.20
2018-09-05T16:09:19.615Z,46.30
2018-09-05T16:11:47.090Z,46.40
2018-09-05T16:14:14.795Z,46.30
2018-09-05T16:16:42.275Z,46.80
2018-09-05T16:19:09.801Z,45.90
2018-09-05T16:21:37.474Z,45.60
2018-09-05T16:24:05.015Z,45.30
2018-09-05T16:26:32.520Z,45.20
2018-09-05T16:29:00.352Z,45.80
2018-09-05T16:31:27.831Z,45.50
2018-09-05T16:33:55.321Z,45.70
2018-09-05T16:36:23.015Z,46.20
2018-09-05T16:38:50.868Z,46.20
2018-09-05T16:41:18.629Z,48.50
2018-09-05T16:43:46.155Z,46.10
2018-09-05T16:46:14.816Z,45.90
2018-09-05T16:48:42.937Z,46.50
2018-09-05T16:51:10.451Z,46.40
2018-09-05T16:53:38.485Z,46.40
2018-09-05T16:56:06.022Z,45.90
2018-09-05T16:58:33.607Z,46.50
2018-09-05T17:01:01.322Z,46.40
2018-09-05T17:03:28.800Z,45.60
2018-09-05T17:05:56.299Z,45.90
2018-09-05T17:08:23.784Z,46.40
2018-09-05T17:10:51.310Z,45.90
2018-09-05T17:13:18.783Z,46.00
2018-09-05T17:15:46.340Z,45.50
2018-09-05T17:18:13.853Z,45.80
2018-09-05T17:20:41.355Z,45.90
2018-09-05T17:23:09.350Z,46.10
2018-09-05T17:25:36.873Z,46.70
2018-09-05T17:28:04.383Z,46.70
2018-09-05T17:30:31.848Z,46.80
2018-09-05T17:32:59.329Z,47.00
2018-09-05T17:35:26.827Z,47.60
2018-09-05T17:37:54.404Z,49.50
2018-09-05T17:40:21.897Z,52.90
2018-09-05T17:42:49.774Z,54.00
2018-09-05T17:45:17.384Z,55.00
2018-09-05T17:47:44.880Z,55.90
2018-09-05T17:50:12.415Z,56.30
2018-09-05T17:52:39.898Z,56.40
2018-09-05T17:55:07.440Z,57.00
2018-09-05T17:57:35.143Z,57.20
2018-09-05T18:00:02.945Z,57.80
2018-09-05T18:02:30.685Z,58.00
2018-09-05T18:04:58.695Z,58.50
2018-09-05T18:07:26.211Z,58.80
2018-09-05T18:09:53.706Z,58.80
2018-09-05T18:12:21.182Z,58.80
2018-09-05T18:14:48.726Z,58.70
2018-09-05T18:17:16.208Z,59.00
2018-09-05T18:19:43.711Z,58.70
2018-09-05T18:22:11.212Z,59.10
2018-09-05T18:24:39.189Z,59.20
2018-09-05T18:27:06.667Z,59.10
2018-09-05T18:29:34.120Z,59.40
2018-09-05T18:32:01.613Z,59.40
2018-09-05T18:34:29.242Z,59.70
2018-09-05T18:36:56.720Z,59.70
2018-09-05T18:39:24.213Z,59.80
2018-09-05T18:41:51.698Z,59.90
2018-09-05T18:44:19.156Z,59.90
2018-09-05T18:46:46.644Z,60.80
2018-09-05T18:49:14.154Z,60.40
2018-09-05T18:51:41.613Z,60.60
2018-09-05T18:54:09.066Z,60.80
2018-09-05T18:56:36.570Z,61.00
2018-09-05T18:59:04.340Z,61.10
2018-09-05T19:01:31.977Z,60.90
2018-09-05T19:03:59.439Z,60.60
2018-09-05T19:06:26.932Z,60.70
2018-09-05T19:08:54.512Z,60.00
2018-09-05T19:11:22.102Z,60.10
2018-09-05T19:13:49.568Z,60.50
2018-09-05T19:16:17.169Z,60.60
2018-09-05T19:18:44.619Z,59.90
2018-09-05T19:21:12.105Z,59.70
2018-09-05T19:23:39.598Z,60.30
2018-09-05T19:26:07.219Z,60.30
2018-09-05T19:28:34.681Z,60.70
2018-09-05T19:31:02.173Z,60.90
2018-09-05T19:33:29.663Z,60.80
2018-09-05T19:35:57.120Z,61.60
2018-09-05T19:38:24.621Z,61.80
2018-09-05T19:40:52.096Z,61.70
2018-09-05T19:43:19.568Z,61.50
2018-09-05T19:45:47.121Z,61.60
2018-09-05T19:48:14.615Z,61.70
2018-09-05T19:50:42.932Z,61.70
2018-09-05T19:53:10.377Z,62.00
2018-09-05T19:55:37.943Z,61.90
2018-09-05T19:58:05.417Z,61.90
2018-09-05T20:00:32.867Z,61.80
2018-09-05T20:03:01.439Z,61.90
2018-09-05T20:05:28.916Z,61.60
2018-09-05T20:07:56.417Z,62.00
2018-09-05T20:10:24.443Z,61.70
2018-09-05T20:12:51.992Z,61.90
2018-09-05T20:15:19.506Z,61.90
2018-09-05T20:17:46.975Z,61.90
2018-09-05T20:20:14.490Z,62.10
2018-09-05T20:22:41.993Z,62.30
2018-09-05T20:25:09.535Z,62.10
2018-09-05T20:27:37.148Z,62.30
2018-09-05T20:30:04.686Z,62.40
2018-09-05T20:32:32.225Z,62.50
2018-09-05T20:34:59.805Z,62.70
2018-09-05T20:37:27.294Z,62.30
2018-09-05T20:39:54.733Z,62.10
2018-09-05T20:42:22.236Z,62.40
2018-09-05T20:44:49.866Z,61.60
2018-09-05T20:47:17.356Z,61.80
2018-09-05T20:49:44.857Z,60.80
2018-09-05T20:52:12.357Z,60.90
2018-09-05T20:54:40.083Z,61.60
2018-09-05T20:57:07.585Z,61.20
2018-09-05T20:59:35.273Z,61.70
2018-09-05T21:02:02.776Z,61.10
2018-09-05T21:04:30.292Z,61.50
2018-09-05T21:06:58.394Z,61.40
2018-09-05T21:09:25.855Z,61.90
2018-09-05T21:11:53.413Z,60.90
2018-09-05T21:14:20.922Z,61.40
2018-09-05T21:16:48.388Z,61.60
2018-09-05T21:19:16.058Z,61.60
2018-09-05T21:21:43.603Z,62.00
2018-09-05T21:24:11.092Z,62.00
2018-09-05T21:26:38.643Z,61.50
2018-09-05T21:29:06.099Z,61.90
2018-09-05T21:31:33.596Z,62.00
2018-09-05T21:34:01.153Z,62.00
2018-09-05T21:36:28.631Z,61.70
2018-09-05T21:38:56.240Z,62.20
2018-09-05T21:41:23.687Z,62.20
2018-09-05T21:43:51.171Z,62.40
2018-09-05T21:46:18.632Z,62.90
2018-09-05T21:48:46.091Z,62.10
2018-09-05T21:51:13.555Z,62.10
2018-09-05T21:53:41.036Z,61.80
2018-09-05T21:56:08.530Z,61.60
2018-09-05T21:58:36.015Z,61.50
2018-09-05T22:01:03.521Z,60.80
2018-09-05T22:03:31.232Z,61.10
2018-09-05T22:05:58.732Z,61.30
2018-09-05T22:08:26.236Z,61.90
2018-09-05T22:10:53.908Z,62.30
2018-09-05T22:13:21.412Z,62.20
2018-09-05T22:15:48.917Z,62.60
2018-09-05T22:18:17.398Z,62.80
2018-09-05T22:20:44.896Z,62.50
2018-09-05T22:23:12.409Z,62.00
2018-09-05T22:25:39.934Z,62.20
2018-09-05T22:28:07.464Z,61.60
2018-09-05T22:30:34.949Z,61.60
2018-09-05T22:33:03.258Z,59.80
2018-09-05T22:35:30.936Z,60.30
2018-09-05T22:37:58.684Z,60.20
2018-09-05T22:40:29.138Z,60.40
2018-09-05T22:43:08.244Z,61.20
2018-09-05T22:45:47.226Z,62.00
2018-09-05T22:48:34.319Z,61.50
2018-09-05T22:52:17.797Z,60.90
2018-09-05T22:57:04.940Z,61.60
2018-09-05T22:59:58.774Z,62.40
2018-09-05T23:02:46.383Z,62.90
2018-09-05T23:05:23.565Z,62.80
2018-09-05T23:08:57.262Z,62.70
2018-09-05T23:11:53.208Z,62.70
2018-09-05T23:14:46.862Z,62.40
2018-09-05T23:17:30.784Z,62.40
2018-09-05T23:22:15.310Z,62.50
2018-09-05T23:24:42.795Z,62.20
2018-09-05T23:27:10.280Z,62.60
2018-09-05T23:29:37.749Z,62.90
2018-09-05T23:32:05.314Z,63.40
2018-09-05T23:34:32.792Z,63.60
2018-09-05T23:37:00.310Z,64.10
2018-09-05T23:39:34.346Z,64.60
2018-09-05T23:42:01.872Z,64.70
2018-09-05T23:44:29.365Z,65.20
2018-09-05T23:46:56.842Z,65.00
2018-09-05T23:49:24.339Z,65.30
2018-09-05T23:51:51.857Z,64.70
2018-09-05T23:54:19.302Z,65.10
2018-09-05T23:56:47.055Z,65.20
2018-09-05T23:59:14.567Z,65.30
